Time;durP1;ratioP1;P1;durP2;ratioP2;P2;SDS_P1;SDS_P2;PMS_P1;PMS_P2;Temp;Humidity;BMP_temperature;BMP_pressure;BME280_temperature;BME280_humidity;BME280_pressure;Samples;Min_cycle;Max_cycle;Signal;HPM_P1;HPM_P2
2022/07/17 00:00:44;;;;;;;7.00;6.50;;;;;;;;;;5099286;28;24565;-46
2022/07/17 00:03:10;;;;;;;6.50;6.00;;;;;;;;;;5099262;28;24528;-46
2022/07/17 00:05:35;;;;;;;6.30;5.80;;;;;;;;;;5096576;28;24513;-45
2022/07/17 00:08:00;;;;;;;6.60;6.10;;;;;;;;;;5108066;27;24490;-46
2022/07/17 00:10:26;;;;;;;6.80;6.30;;;;;;;;;;5101168;28;24428;-45
2022/07/17 00:12:51;;;;;;;6.90;6.30;;;;;;;;;;5100390;27;24429;-45
2022/07/17 00:15:16;;;;;;;7.30;6.73;;;;;;;;;;5101679;27;24963;-45
2022/07/17 00:17:41;;;;;;;7.28;6.68;;;;;;;;;;5106267;27;25149;-45
2022/07/17 00:20:07;;;;;;;7.00;6.50;;;;;;;;;;5097175;28;24437;-45
2022/07/17 00:22:32;;;;;;;6.50;6.00;;;;;;;;;;5106272;27;24414;-45
2022/07/17 00:24:57;;;;;;;7.70;7.10;;;;;;;;;;5098071;27;24482;-45
2022/07/17 00:27:23;;;;;;;7.22;6.63;;;;;;;;;;5105097;28;24967;-46
2022/07/17 00:29:48;;;;;;;7.00;6.40;;;;;;;;;;5100812;28;24472;-46
2022/07/17 00:32:13;;;;;;;6.40;5.90;;;;;;;;;;5104048;28;24667;-46
2022/07/17 00:34:38;;;;;;;6.22;5.72;;;;;;;;;;5102755;27;24469;-45
2022/07/17 00:37:03;;;;;;;6.03;5.53;;;;;;;;;;5098861;28;24440;-46
2022/07/17 00:39:28;;;;;;;5.50;5.10;;;;;;;;;;5098516;28;24574;-46
2022/07/17 00:41:54;;;;;;;6.75;6.15;;;;;;;;;;5098017;28;24413;-46
2022/07/17 00:44:19;;;;;;;6.00;5.50;;;;;;;;;;5103142;27;24412;-51
2022/07/17 00:46:44;;;;;;;5.90;5.40;;;;;;;;;;5104267;27;24413;-46
2022/07/17 00:49:10;;;;;;;5.57;5.18;;;;;;;;;;5101162;27;24441;-46
2022/07/17 00:51:35;;;;;;;6.00;5.50;;;;;;;;;;5101778;28;25053;-46
2022/07/17 00:54:01;;;;;;;5.73;5.23;;;;;;;;;;5101956;27;24430;-51
2022/07/17 00:56:27;;;;;;;5.80;5.20;;;;;;;;;;5111355;27;24502;-46
2022/07/17 00:58:52;;;;;;;6.38;5.80;;;;;;;;;;5103568;27;24947;-46
2022/07/17 01:01:17;;;;;;;5.70;5.20;;;;;;;;;;5106606;27;24444;-46
2022/07/17 01:03:43;;;;;;;6.20;5.70;;;;;;;;;;5103188;28;24425;-46
2022/07/17 01:06:08;;;;;;;6.00;5.50;;;;;;;;;;5091649;28;24417;-46
2022/07/17 01:08:34;;;;;;;6.20;5.70;;;;;;;;;;5101316;27;24873;-46
2022/07/17 01:10:59;;;;;;;6.00;5.50;;;;;;;;;;5100389;27;25030;-46
2022/07/17 01:13:25;;;;;;;6.00;5.50;;;;;;;;;;5105786;28;24532;-46
2022/07/17 01:15:50;;;;;;;5.60;5.10;;;;;;;;;;5109457;27;24517;-46
2022/07/17 01:18:16;;;;;;;6.67;6.00;;;;;;;;;;5090901;27;24960;-46
2022/07/17 01:20:43;;;;;;;6.85;6.25;;;;;;;;;;5091846;28;24971;-45
2022/07/17 01:23:09;;;;;;;6.70;6.10;;;;;;;;;;5099921;28;24421;-45
2022/07/17 01:25:34;;;;;;;7.10;6.50;;;;;;;;;;5106276;28;24733;-46
2022/07/17 01:28:00;;;;;;;7.68;7.05;;;;;;;;;;5099599;27;26304;-45
2022/07/17 01:30:25;;;;;;;7.07;6.47;;;;;;;;;;5106296;27;24510;-46
2022/07/17 01:32:50;;;;;;;7.00;6.50;;;;;;;;;;5095294;27;24421;-46
2022/07/17 01:35:16;;;;;;;7.70;7.00;;;;;;;;;;5103565;27;24436;-46
2022/07/17 01:37:42;;;;;;;6.60;6.10;;;;;;;;;;5098094;28;24964;-46
2022/07/17 01:40:07;;;;;;;5.90;5.40;;;;;;;;;;5092620;28;25043;-46
2022/07/17 01:42:32;;;;;;;6.10;5.60;;;;;;;;;;5102470;27;24807;-46
2022/07/17 01:44:58;;;;;;;7.00;6.40;;;;;;;;;;5105171;27;24946;-46
2022/07/17 01:47:23;;;;;;;6.00;5.60;;;;;;;;;;5098079;27;24468;-47
2022/07/17 01:49:49;;;;;;;6.10;5.60;;;;;;;;;;5110468;27;24484;-46
2022/07/17 01:52:15;;;;;;;5.80;5.33;;;;;;;;;;5090112;27;24979;-46
2022/07/17 01:54:40;;;;;;;6.67;6.07;;;;;;;;;;5109529;27;24430;-47
2022/07/17 01:57:05;;;;;;;6.40;5.90;;;;;;;;;;5093156;27;24425;-46
2022/07/17 01:59:30;;;;;;;5.60;5.10;;;;;;;;;;5099637;28;24437;-46
2022/07/17 02:01:56;;;;;;;5.20;4.80;;;;;;;;;;5099157;27;24432;-46
2022/07/17 02:04:21;;;;;;;4.93;4.50;;;;;;;;;;5106354;27;24982;-46
2022/07/17 02:06:46;;;;;;;4.47;4.15;;;;;;;;;;5091141;28;24415;-47
2022/07/17 02:09:11;;;;;;;4.90;4.50;;;;;;;;;;5102330;28;24506;-46
2022/07/17 02:11:36;;;;;;;4.53;4.20;;;;;;;;;;5095958;28;25013;-46
2022/07/17 02:14:01;;;;;;;5.70;5.20;;;;;;;;;;5100729;28;24520;-47
2022/07/17 02:16:27;;;;;;;5.80;5.40;;;;;;;;;;5094579;28;25028;-46
2022/07/17 02:18:52;;;;;;;6.00;5.50;;;;;;;;;;5088670;28;24432;-46
2022/07/17 02:21:17;;;;;;;6.85;6.25;;;;;;;;;;5096709;28;24511;-46
2022/07/17 02:23:42;;;;;;;5.85;5.35;;;;;;;;;;5100945;28;24967;-46
2022/07/17 02:26:08;;;;;;;6.00;5.50;;;;;;;;;;5094758;28;24459;-46
2022/07/17 02:28:33;;;;;;;6.40;5.90;;;;;;;;;;5091881;27;24987;-46
2022/07/17 02:30:59;;;;;;;6.40;5.80;;;;;;;;;;5094415;27;24441;-46
2022/07/17 02:33:24;;;;;;;6.50;6.00;;;;;;;;;;5111297;27;24955;-45
2022/07/17 02:35:49;;;;;;;7.20;6.70;;;;;;;;;;5096056;27;24559;-46
2022/07/17 02:38:14;;;;;;;6.43;6.03;;;;;;;;;;5095564;28;24902;-45
2022/07/17 02:40:41;;;;;;;8.13;7.32;;;;;;;;;;5087586;28;24425;-45
2022/07/17 02:43:06;;;;;;;6.72;6.22;;;;;;;;;;5098815;27;24415;-45
2022/07/17 02:45:31;;;;;;;6.43;5.93;;;;;;;;;;5089463;28;24417;-45
2022/07/17 02:47:57;;;;;;;7.20;6.70;;;;;;;;;;5095142;28;24682;-45
2022/07/17 02:50:22;;;;;;;7.60;7.00;;;;;;;;;;5088871;28;26172;-44
2022/07/17 02:52:49;;;;;;;6.65;6.05;;;;;;;;;;5092112;28;24441;-45
2022/07/17 02:55:14;;;;;;;6.75;6.15;;;;;;;;;;5093211;28;24843;-46
2022/07/17 02:57:39;;;;;;;7.10;6.40;;;;;;;;;;5088234;28;24940;-45
2022/07/17 03:00:06;;;;;;;7.30;6.60;;;;;;;;;;5093961;28;24422;-45
2022/07/17 03:02:31;;;;;;;6.47;5.97;;;;;;;;;;5088471;28;25251;-46
2022/07/17 03:04:56;;;;;;;6.70;6.10;;;;;;;;;;5095010;28;24426;-45
2022/07/17 03:07:21;;;;;;;6.10;5.60;;;;;;;;;;5097586;28;24424;-45
2022/07/17 03:09:46;;;;;;;5.43;5.03;;;;;;;;;;5086918;28;24478;-46
2022/07/17 03:12:12;;;;;;;6.10;5.60;;;;;;;;;;5101136;28;24494;-46
2022/07/17 03:14:37;;;;;;;5.60;5.20;;;;;;;;;;5110172;28;24927;-47
2022/07/17 03:17:02;;;;;;;5.30;4.90;;;;;;;;;;5089290;28;24501;-46
2022/07/17 03:19:28;;;;;;;5.87;5.37;;;;;;;;;;5102392;28;24470;-47
2022/07/17 03:21:53;;;;;;;5.73;5.33;;;;;;;;;;5090758;28;24985;-46
2022/07/17 03:24:18;;;;;;;5.10;4.80;;;;;;;;;;5096619;28;24428;-46
2022/07/17 03:26:43;;;;;;;5.25;4.85;;;;;;;;;;5091897;28;24422;-45
2022/07/17 03:29:08;;;;;;;5.27;4.87;;;;;;;;;;5093355;28;25036;-46
2022/07/17 03:31:33;;;;;;;5.30;4.90;;;;;;;;;;5099670;28;24421;-45
2022/07/17 03:33:59;;;;;;;5.90;5.40;;;;;;;;;;5097138;27;24425;-46
2022/07/17 03:36:24;;;;;;;4.70;4.40;;;;;;;;;;5089394;28;24509;-46
2022/07/17 03:38:49;;;;;;;4.93;4.43;;;;;;;;;;5096656;28;24418;-46
2022/07/17 03:41:14;;;;;;;5.10;4.70;;;;;;;;;;5102067;28;24478;-46
2022/07/17 03:43:39;;;;;;;4.35;4.05;;;;;;;;;;5089020;28;24491;-46
2022/07/17 03:46:04;;;;;;;3.83;3.53;;;;;;;;;;5101560;28;24439;-46
2022/07/17 03:48:30;;;;;;;4.70;4.30;;;;;;;;;;5104261;28;24997;-46
2022/07/17 03:50:55;;;;;;;4.70;4.40;;;;;;;;;;5101032;28;24997;-45
2022/07/17 03:53:20;;;;;;;4.00;3.70;;;;;;;;;;5106325;28;24993;-45
2022/07/17 03:55:45;;;;;;;3.90;3.60;;;;;;;;;;5104880;28;24418;-45
2022/07/17 03:58:10;;;;;;;4.50;4.13;;;;;;;;;;5094080;28;24430;-45
2022/07/17 04:00:35;;;;;;;3.88;3.58;;;;;;;;;;5100949;28;24420;-45
2022/07/17 04:03:00;;;;;;;4.20;3.83;;;;;;;;;;5090805;28;24441;-45
2022/07/17 04:05:26;;;;;;;4.22;3.60;;;;;;;;;;5101526;28;24890;-45
2022/07/17 04:07:51;;;;;;;4.07;3.70;;;;;;;;;;5102682;27;24418;-46
2022/07/17 04:10:16;;;;;;;5.05;3.50;;;;;;;;;;5099026;27;24437;-45
2022/07/17 04:12:41;;;;;;;3.40;3.20;;;;;;;;;;5096227;28;24854;-45
2022/07/17 04:15:07;;;;;;;3.50;3.20;;;;;;;;;;5100590;27;25025;-45
2022/07/17 04:17:32;;;;;;;3.60;3.30;;;;;;;;;;5094735;28;24606;-45
2022/07/17 04:19:57;;;;;;;3.50;3.20;;;;;;;;;;5103944;27;24544;-46
2022/07/17 04:22:22;;;;;;;3.40;3.10;;;;;;;;;;5101254;27;24792;-45
2022/07/17 04:24:48;;;;;;;3.40;3.10;;;;;;;;;;5091878;28;25201;-45
2022/07/17 04:27:13;;;;;;;4.53;2.77;;;;;;;;;;5093051;28;24776;-45
2022/07/17 04:29:38;;;;;;;2.80;2.50;;;;;;;;;;5102497;28;24429;-46
2022/07/17 04:32:04;;;;;;;3.03;2.73;;;;;;;;;;5095300;28;24434;-46
2022/07/17 04:34:29;;;;;;;3.10;2.80;;;;;;;;;;5102059;27;24991;-45
2022/07/17 04:36:54;;;;;;;3.33;3.03;;;;;;;;;;5102538;28;24425;-46
2022/07/17 04:39:20;;;;;;;3.80;3.50;;;;;;;;;;5091169;28;24541;-45
2022/07/17 04:41:45;;;;;;;3.70;3.40;;;;;;;;;;5095980;28;24421;-45
2022/07/17 04:44:10;;;;;;;3.25;2.95;;;;;;;;;;5103153;27;24425;-46
2022/07/17 04:46:35;;;;;;;3.42;2.70;;;;;;;;;;5103861;28;24429;-46
2022/07/17 04:49:00;;;;;;;2.40;2.20;;;;;;;;;;5096086;28;24886;-46
2022/07/17 04:51:25;;;;;;;2.60;2.40;;;;;;;;;;5106744;28;24440;-46
2022/07/17 04:53:50;;;;;;;3.10;2.20;;;;;;;;;;5097453;28;25081;-47
2022/07/17 04:56:16;;;;;;;2.72;2.25;;;;;;;;;;5099321;28;24429;-46
2022/07/17 04:58:41;;;;;;;3.05;2.80;;;;;;;;;;5090850;27;24426;-47
2022/07/17 05:01:06;;;;;;;2.93;2.20;;;;;;;;;;5098745;28;25339;-45
2022/07/17 05:03:31;;;;;;;3.40;3.00;;;;;;;;;;5119363;27;24408;-46
2022/07/17 05:05:56;;;;;;;3.42;2.50;;;;;;;;;;5107206;27;24441;-45
2022/07/17 05:08:21;;;;;;;2.30;2.00;;;;;;;;;;5103760;28;24857;-46
2022/07/17 05:10:47;;;;;;;3.03;2.20;;;;;;;;;;5106668;27;24421;-44
2022/07/17 05:13:12;;;;;;;3.50;2.30;;;;;;;;;;5093705;27;24426;-45
2022/07/17 05:15:37;;;;;;;3.47;2.10;;;;;;;;;;5111952;27;24413;-44
2022/07/17 05:18:03;;;;;;;2.90;2.50;;;;;;;;;;5092904;28;24437;-45
2022/07/17 05:20:28;;;;;;;2.37;2.00;;;;;;;;;;5087849;28;24765;-45
2022/07/17 05:22:53;;;;;;;3.70;2.07;;;;;;;;;;5084200;28;24567;-45
2022/07/17 05:25:19;;;;;;;2.50;1.90;;;;;;;;;;5096339;28;24434;-45
2022/07/17 05:27:44;;;;;;;2.77;1.90;;;;;;;;;;5095401;27;24437;-46
2022/07/17 05:30:09;;;;;;;2.47;1.90;;;;;;;;;;5090225;28;24780;-45
2022/07/17 05:32:34;;;;;;;2.00;1.70;;;;;;;;;;5096100;28;24768;-45
2022/07/17 05:34:59;;;;;;;3.50;2.20;;;;;;;;;;5087546;28;24464;-45
2022/07/17 05:37:25;;;;;;;2.30;1.77;;;;;;;;;;5094652;28;24571;-46
2022/07/17 05:39:50;;;;;;;2.40;1.60;;;;;;;;;;5093374;28;24486;-46
2022/07/17 05:42:15;;;;;;;2.10;1.90;;;;;;;;;;5088174;28;24425;-46
2022/07/17 05:44:40;;;;;;;3.17;1.83;;;;;;;;;;5094225;28;24966;-46
2022/07/17 05:47:05;;;;;;;2.42;1.98;;;;;;;;;;5097799;28;24524;-46
2022/07/17 05:49:30;;;;;;;2.67;2.10;;;;;;;;;;5093737;28;24430;-47
2022/07/17 05:51:55;;;;;;;3.03;2.20;;;;;;;;;;5085384;28;25022;-46
2022/07/17 05:54:21;;;;;;;3.70;2.00;;;;;;;;;;5097526;28;25111;-46
2022/07/17 05:56:46;;;;;;;2.15;1.80;;;;;;;;;;5091862;28;24410;-46
2022/07/17 05:59:11;;;;;;;3.17;1.90;;;;;;;;;;5089708;28;25019;-46
2022/07/17 06:01:36;;;;;;;4.13;1.90;;;;;;;;;;5100448;28;24417;-46
2022/07/17 06:04:01;;;;;;;1.70;1.60;;;;;;;;;;5094173;28;24426;-45
2022/07/17 06:06:26;;;;;;;2.20;1.60;;;;;;;;;;5096752;28;24422;-46
2022/07/17 06:08:52;;;;;;;3.23;1.90;;;;;;;;;;5096965;28;24430;-46
2022/07/17 06:11:17;;;;;;;2.60;1.50;;;;;;;;;;5080772;27;24425;-46
2022/07/17 06:13:42;;;;;;;2.10;1.60;;;;;;;;;;5087874;28;24983;-46
2022/07/17 06:16:08;;;;;;;2.63;1.80;;;;;;;;;;5088575;28;24417;-46
2022/07/17 06:18:33;;;;;;;1.83;1.30;;;;;;;;;;5097629;28;24437;-46
2022/07/17 06:20:58;;;;;;;2.97;1.63;;;;;;;;;;5096635;28;24975;-46
2022/07/17 06:23:23;;;;;;;2.40;1.80;;;;;;;;;;5092446;28;24434;-47
2022/07/17 06:25:48;;;;;;;2.05;1.83;;;;;;;;;;5092418;27;24418;-46
2022/07/17 06:28:14;;;;;;;3.80;1.83;;;;;;;;;;5101021;27;24784;-46
2022/07/17 06:30:39;;;;;;;1.92;1.40;;;;;;;;;;5097097;28;24506;-46
2022/07/17 06:33:04;;;;;;;3.25;1.60;;;;;;;;;;5096651;27;24577;-46
2022/07/17 06:35:30;;;;;;;2.58;1.50;;;;;;;;;;5091968;28;24784;-46
2022/07/17 06:37:55;;;;;;;2.67;1.50;;;;;;;;;;5109615;27;24430;-46
2022/07/17 06:40:21;;;;;;;2.00;1.30;;;;;;;;;;5096048;27;24438;-46
2022/07/17 06:42:46;;;;;;;2.13;1.30;;;;;;;;;;5089253;28;24433;-46
2022/07/17 06:45:11;;;;;;;2.10;1.50;;;;;;;;;;5095583;28;24474;-46
2022/07/17 06:47:37;;;;;;;2.17;1.50;;;;;;;;;;5100795;28;24432;-45
2022/07/17 06:50:02;;;;;;;2.13;1.30;;;;;;;;;;5096495;28;24456;-45
2022/07/17 06:52:28;;;;;;;2.80;1.10;;;;;;;;;;5091205;28;24461;-45
2022/07/17 06:54:53;;;;;;;3.00;1.50;;;;;;;;;;5092652;28;24501;-46
2022/07/17 06:57:18;;;;;;;2.03;1.20;;;;;;;;;;5095037;27;24441;-47
2022/07/17 06:59:43;;;;;;;2.40;1.10;;;;;;;;;;5092085;28;24411;-46
2022/07/17 07:02:08;;;;;;;4.30;1.50;;;;;;;;;;5089656;28;24435;-46
2022/07/17 07:04:33;;;;;;;3.00;1.60;;;;;;;;;;5091129;28;24452;-46
2022/07/17 07:06:58;;;;;;;3.10;1.40;;;;;;;;;;5092246;28;24518;-47
2022/07/17 07:09:24;;;;;;;1.60;1.27;;;;;;;;;;5096866;28;24529;-46
2022/07/17 07:11:49;;;;;;;2.50;1.47;;;;;;;;;;5088099;28;24788;-46
2022/07/17 07:14:14;;;;;;;1.52;1.20;;;;;;;;;;5081173;28;24525;-46
2022/07/17 07:16:39;;;;;;;2.10;1.20;;;;;;;;;;5087832;28;24480;-51
2022/07/17 07:19:04;;;;;;;2.30;1.10;;;;;;;;;;5084886;28;24805;-47
2022/07/17 07:21:29;;;;;;;3.80;1.40;;;;;;;;;;5080747;28;24944;-46
2022/07/17 07:23:55;;;;;;;4.38;1.50;;;;;;;;;;5080084;28;24437;-47
2022/07/17 07:26:20;;;;;;;1.50;1.20;;;;;;;;;;5086801;28;24518;-47
2022/07/17 07:28:45;;;;;;;2.85;1.45;;;;;;;;;;5089850;28;24819;-46
2022/07/17 07:31:11;;;;;;;2.73;1.60;;;;;;;;;;5085958;28;24959;-47
2022/07/17 07:33:36;;;;;;;1.63;0.97;;;;;;;;;;5088005;28;24426;-47
2022/07/17 07:36:02;;;;;;;3.60;1.30;;;;;;;;;;5085422;28;24542;-46
2022/07/17 07:38:27;;;;;;;1.80;1.50;;;;;;;;;;5085910;28;24561;-46
2022/07/17 07:40:52;;;;;;;2.03;1.30;;;;;;;;;;5086496;28;24528;-46
2022/07/17 07:43:17;;;;;;;2.27;1.20;;;;;;;;;;5108970;27;24428;-46
2022/07/17 07:45:42;;;;;;;2.00;1.40;;;;;;;;;;5106004;28;24944;-46
2022/07/17 07:48:07;;;;;;;2.60;1.30;;;;;;;;;;5089040;28;24440;-47
2022/07/17 07:50:33;;;;;;;2.63;1.60;;;;;;;;;;5091485;27;24814;-47
2022/07/17 07:52:58;;;;;;;2.63;1.30;;;;;;;;;;5088469;28;24453;-47
2022/07/17 07:55:23;;;;;;;2.40;1.30;;;;;;;;;;5088036;28;24846;-46
2022/07/17 07:57:48;;;;;;;2.78;1.20;;;;;;;;;;5083224;28;24722;-46
2022/07/17 08:00:14;;;;;;;2.80;1.40;;;;;;;;;;5079378;28;24438;-46
2022/07/17 08:02:40;;;;;;;2.80;1.45;;;;;;;;;;5079480;28;24664;-47
2022/07/17 08:05:05;;;;;;;4.10;1.40;;;;;;;;;;5087056;28;24448;-47
2022/07/17 08:07:30;;;;;;;2.20;1.20;;;;;;;;;;5080528;28;25069;-47
2022/07/17 08:09:56;;;;;;;2.07;1.40;;;;;;;;;;5081659;28;24574;-46
2022/07/17 08:12:22;;;;;;;1.67;1.48;;;;;;;;;;5080908;28;24433;-47
2022/07/17 08:14:47;;;;;;;3.80;1.40;;;;;;;;;;5077789;27;24545;-46
2022/07/17 08:17:12;;;;;;;2.90;1.50;;;;;;;;;;5107556;27;24418;-46
2022/07/17 08:19:37;;;;;;;2.03;1.30;;;;;;;;;;5113501;27;24618;-46
2022/07/17 08:22:02;;;;;;;3.57;1.40;;;;;;;;;;5093359;28;24570;-46
2022/07/17 08:24:28;;;;;;;3.40;1.50;;;;;;;;;;5083643;28;24432;-47
2022/07/17 08:26:53;;;;;;;1.47;1.20;;;;;;;;;;5078599;28;25075;-47
2022/07/17 08:29:18;;;;;;;1.70;1.20;;;;;;;;;;5078589;28;24974;-47
2022/07/17 08:31:43;;;;;;;3.10;1.40;;;;;;;;;;5081618;28;25028;-46
2022/07/17 08:34:08;;;;;;;2.80;1.30;;;;;;;;;;5090884;28;24433;-46
2022/07/17 08:36:33;;;;;;;1.70;1.20;;;;;;;;;;5087510;28;24428;-47
2022/07/17 08:38:58;;;;;;;3.20;1.20;;;;;;;;;;5080458;28;24506;-47
2022/07/17 08:41:24;;;;;;;2.30;1.20;;;;;;;;;;5083642;28;24517;-46
2022/07/17 08:43:50;;;;;;;1.87;1.10;;;;;;;;;;5090970;28;25036;-46
2022/07/17 08:46:16;;;;;;;2.22;1.27;;;;;;;;;;5079671;28;24481;-45
2022/07/17 08:48:42;;;;;;;2.53;1.45;;;;;;;;;;5079878;28;24442;-47
2022/07/17 08:51:08;;;;;;;3.13;1.10;;;;;;;;;;5087579;28;24449;-46
2022/07/17 08:53:35;;;;;;;1.80;1.10;;;;;;;;;;5083561;28;24458;-46
2022/07/17 08:56:00;;;;;;;2.80;1.67;;;;;;;;;;5078217;28;25195;-46
2022/07/17 08:58:25;;;;;;;2.80;1.30;;;;;;;;;;5079460;28;24422;-46
2022/07/17 09:00:51;;;;;;;3.90;1.40;;;;;;;;;;5078889;28;24425;-46
2022/07/17 09:03:17;;;;;;;2.05;1.50;;;;;;;;;;5079117;27;24510;-47
2022/07/17 09:05:42;;;;;;;1.65;1.23;;;;;;;;;;5078788;28;24505;-46
2022/07/17 09:08:08;;;;;;;3.13;1.60;;;;;;;;;;5091053;28;24979;-45
2022/07/17 09:10:40;;;;;;;2.53;1.40;;;;;;;;;;5077232;28;24525;-45
2022/07/17 09:13:13;;;;;;;2.50;1.60;;;;;;;;;;5105028;28;25591;-45
2022/07/17 09:15:38;;;;;;;2.22;1.40;;;;;;;;;;5096147;28;24418;-45
2022/07/17 09:18:03;;;;;;;2.72;1.40;;;;;;;;;;5093257;28;24475;-46
2022/07/17 09:20:29;;;;;;;2.55;1.20;;;;;;;;;;5097302;28;24418;-46
2022/07/17 09:22:57;;;;;;;3.13;1.20;;;;;;;;;;5099231;28;24521;-46
2022/07/17 09:25:31;;;;;;;3.80;1.40;;;;;;;;;;5098467;28;24843;-46
2022/07/17 09:27:56;;;;;;;2.58;1.35;;;;;;;;;;5109541;27;24426;-46
2022/07/17 09:30:21;;;;;;;2.53;1.20;;;;;;;;;;5107111;27;24479;-46
2022/07/17 09:32:48;;;;;;;3.33;1.10;;;;;;;;;;5106031;27;24486;-46
2022/07/17 09:35:15;;;;;;;2.50;1.33;;;;;;;;;;5116743;27;24476;-51
2022/07/17 09:37:40;;;;;;;4.80;1.40;;;;;;;;;;5089493;28;25001;-46
2022/07/17 09:41:09;;;;;;;3.25;1.35;;;;;;;;;;5106243;28;24434;-47
2022/07/17 09:42:57;;;;;;;4.10;1.40;;;;;;;;;;5103292;28;25237;-46
2022/07/17 09:45:22;;;;;;;2.30;1.40;;;;;;;;;;5108379;27;25042;-47
2022/07/17 09:47:48;;;;;;;2.35;1.48;;;;;;;;;;5112837;27;25002;-46
2022/07/17 09:50:13;;;;;;;3.00;1.50;;;;;;;;;;5103140;27;24583;-46
2022/07/17 09:52:38;;;;;;;2.17;1.40;;;;;;;;;;5098228;28;24838;-47
2022/07/17 09:55:04;;;;;;;1.93;1.40;;;;;;;;;;5105156;28;24397;-46
2022/07/17 09:57:30;;;;;;;2.60;1.50;;;;;;;;;;5105743;28;24955;-47
2022/07/17 09:59:58;;;;;;;2.13;1.60;;;;;;;;;;5105803;28;24426;-45
2022/07/17 10:02:24;;;;;;;2.47;1.40;;;;;;;;;;5103065;28;24967;-45
2022/07/17 10:04:50;;;;;;;2.80;1.40;;;;;;;;;;5103580;28;24429;-45
2022/07/17 10:07:15;;;;;;;3.60;1.60;;;;;;;;;;5076409;28;24510;-45
2022/07/17 10:09:41;;;;;;;2.10;1.20;;;;;;;;;;5091522;28;25009;-45
2022/07/17 10:12:06;;;;;;;4.00;1.70;;;;;;;;;;5100982;27;24420;-45
2022/07/17 10:14:32;;;;;;;4.18;1.48;;;;;;;;;;5094129;28;24429;-46
2022/07/17 10:17:07;;;;;;;2.40;1.50;;;;;;;;;;5097220;27;24960;-45
2022/07/17 10:19:33;;;;;;;4.50;1.52;;;;;;;;;;5099168;28;24510;-46
2022/07/17 10:22:04;;;;;;;2.50;1.50;;;;;;;;;;5097167;28;24532;-46
2022/07/17 10:24:29;;;;;;;1.52;1.20;;;;;;;;;;5099449;28;25055;-45
2022/07/17 10:26:54;;;;;;;2.13;1.10;;;;;;;;;;5104337;28;24537;-46
2022/07/17 10:29:36;;;;;;;2.10;1.50;;;;;;;;;;5104253;28;24428;-46
2022/07/17 10:32:03;;;;;;;2.45;1.50;;;;;;;;;;5099373;28;24424;-46
2022/07/17 10:34:39;;;;;;;2.65;1.30;;;;;;;;;;5099025;28;24417;-46
2022/07/17 10:37:27;;;;;;;2.08;1.30;;;;;;;;;;5090722;28;24422;-46
2022/07/17 10:40:00;;;;;;;2.10;1.50;;;;;;;;;;5083338;28;24466;-46
2022/07/17 10:42:44;;;;;;;3.77;1.57;;;;;;;;;;5093227;28;24518;-46
2022/07/17 10:45:14;;;;;;;1.70;1.30;;;;;;;;;;5100002;28;24981;-45
2022/07/17 10:47:43;;;;;;;1.75;1.20;;;;;;;;;;5090848;28;24478;-46
2022/07/17 10:50:08;;;;;;;1.88;1.33;;;;;;;;;;5102299;28;24484;-45
2022/07/17 10:52:33;;;;;;;1.92;1.30;;;;;;;;;;5088751;28;24450;-45
2022/07/17 10:54:58;;;;;;;2.70;1.20;;;;;;;;;;5087011;28;24994;-45
2022/07/17 10:57:24;;;;;;;1.60;1.20;;;;;;;;;;5100870;27;24472;-46
2022/07/17 10:59:50;;;;;;;2.90;1.60;;;;;;;;;;5103122;27;24517;-46
2022/07/17 11:02:15;;;;;;;1.52;1.17;;;;;;;;;;5096147;28;24601;-46
2022/07/17 11:04:41;;;;;;;2.92;1.50;;;;;;;;;;5103721;27;24559;-46
2022/07/17 11:07:06;;;;;;;2.40;1.57;;;;;;;;;;5086135;28;24427;-46
2022/07/17 11:09:31;;;;;;;2.07;1.40;;;;;;;;;;5088258;28;24437;-45
2022/07/17 11:11:57;;;;;;;3.35;1.50;;;;;;;;;;5098909;28;24421;-47
2022/07/17 11:14:23;;;;;;;2.50;1.30;;;;;;;;;;5101666;27;24421;-51
2022/07/17 11:16:54;;;;;;;1.67;1.20;;;;;;;;;;5104505;28;24532;-45
2022/07/17 11:19:33;;;;;;;2.10;1.02;;;;;;;;;;5102516;28;25118;-48
2022/07/17 11:21:59;;;;;;;2.40;1.20;;;;;;;;;;5098137;28;24456;-46
2022/07/17 11:24:26;;;;;;;2.40;1.60;;;;;;;;;;5089540;28;24426;-45
2022/07/17 11:26:51;;;;;;;1.88;1.60;;;;;;;;;;5096176;28;25125;-46
2022/07/17 11:29:17;;;;;;;2.57;1.40;;;;;;;;;;5089531;28;24468;-46
2022/07/17 11:31:42;;;;;;;3.05;1.50;;;;;;;;;;5101528;28;24448;-45
2022/07/17 11:34:11;;;;;;;2.50;1.40;;;;;;;;;;5091261;28;24437;-45
2022/07/17 11:36:38;;;;;;;1.65;1.30;;;;;;;;;;5087561;28;24664;-46
2022/07/17 11:39:04;;;;;;;1.75;1.20;;;;;;;;;;5099842;28;27238;-45
2022/07/17 11:41:31;;;;;;;2.45;1.55;;;;;;;;;;5093839;28;24533;-46
2022/07/17 11:43:56;;;;;;;3.07;1.20;;;;;;;;;;5090595;28;24432;-45
2022/07/17 11:46:21;;;;;;;2.47;1.20;;;;;;;;;;5094094;28;24426;-45
2022/07/17 11:48:47;;;;;;;1.50;1.20;;;;;;;;;;5098853;28;24453;-46
2022/07/17 11:51:12;;;;;;;2.60;1.40;;;;;;;;;;5102827;28;24471;-45
2022/07/17 11:53:38;;;;;;;1.70;1.50;;;;;;;;;;5087116;28;24956;-46
2022/07/17 11:56:04;;;;;;;2.57;1.47;;;;;;;;;;5090483;28;24429;-45
2022/07/17 11:58:40;;;;;;;2.67;1.20;;;;;;;;;;5090009;28;24465;-45
2022/07/17 12:01:05;;;;;;;2.13;1.40;;;;;;;;;;5085266;28;24538;-45
2022/07/17 12:03:30;;;;;;;2.67;1.67;;;;;;;;;;5086835;28;24521;-46
2022/07/17 12:05:56;;;;;;;3.10;1.70;;;;;;;;;;5099359;28;24426;-46
2022/07/17 12:08:21;;;;;;;2.70;1.50;;;;;;;;;;5083594;28;24429;-46
2022/07/17 12:10:49;;;;;;;2.30;1.50;;;;;;;;;;5086418;28;24425;-47
2022/07/17 12:13:14;;;;;;;1.52;1.40;;;;;;;;;;5096999;28;24499;-46
2022/07/17 12:15:44;;;;;;;1.52;1.25;;;;;;;;;;5091778;28;25047;-47
2022/07/17 12:18:23;;;;;;;3.33;1.50;;;;;;;;;;5089292;28;24959;-46
2022/07/17 12:20:50;;;;;;;2.08;1.27;;;;;;;;;;5084428;28;24436;-46
2022/07/17 12:23:27;;;;;;;2.25;1.20;;;;;;;;;;5093214;28;24497;-47
2022/07/17 12:26:09;;;;;;;1.92;1.60;;;;;;;;;;5096699;28;24521;-47
2022/07/17 12:28:35;;;;;;;2.88;1.42;;;;;;;;;;5088424;28;24971;-46
2022/07/17 12:31:00;;;;;;;3.38;1.50;;;;;;;;;;5089187;28;24428;-45
2022/07/17 12:33:25;;;;;;;1.73;1.40;;;;;;;;;;5105197;28;24421;-46
2022/07/17 12:35:51;;;;;;;2.22;1.23;;;;;;;;;;5094129;28;24422;-44
2022/07/17 12:38:16;;;;;;;2.30;1.40;;;;;;;;;;5102820;28;24432;-45
2022/07/17 12:40:41;;;;;;;3.27;1.23;;;;;;;;;;5088639;28;24534;-45
2022/07/17 12:43:07;;;;;;;2.20;1.37;;;;;;;;;;5097420;28;24476;-46
2022/07/17 12:45:32;;;;;;;1.63;1.30;;;;;;;;;;5099023;28;24437;-46
2022/07/17 12:47:57;;;;;;;3.88;1.55;;;;;;;;;;5102900;27;24463;-45
2022/07/17 12:50:23;;;;;;;1.60;1.13;;;;;;;;;;5103912;28;25235;-46
2022/07/17 12:52:48;;;;;;;1.73;1.20;;;;;;;;;;5099227;28;24513;-46
2022/07/17 12:55:13;;;;;;;2.30;1.50;;;;;;;;;;5103763;27;24808;-46
2022/07/17 12:57:38;;;;;;;2.10;1.30;;;;;;;;;;5093957;28;24534;-46
2022/07/17 13:00:04;;;;;;;2.10;1.10;;;;;;;;;;5093327;27;24507;-46
2022/07/17 13:02:29;;;;;;;2.10;1.20;;;;;;;;;;5095047;28;24426;-47
2022/07/17 13:04:54;;;;;;;1.60;1.30;;;;;;;;;;5102766;28;24487;-46
2022/07/17 13:07:19;;;;;;;2.05;1.40;;;;;;;;;;5098802;28;24464;-46
2022/07/17 13:09:44;;;;;;;1.97;1.23;;;;;;;;;;5095698;28;24572;-46
2022/07/17 13:12:10;;;;;;;1.50;1.20;;;;;;;;;;5086295;28;24425;-46
2022/07/17 13:14:35;;;;;;;1.95;1.10;;;;;;;;;;5094244;27;24409;-46
2022/07/17 13:17:00;;;;;;;2.53;1.53;;;;;;;;;;5104684;27;24447;-46
2022/07/17 13:19:25;;;;;;;1.67;1.23;;;;;;;;;;5087804;28;24819;-46
2022/07/17 13:21:51;;;;;;;1.20;1.10;;;;;;;;;;5089148;28;24543;-46
2022/07/17 13:24:16;;;;;;;1.83;1.10;;;;;;;;;;5092109;28;24911;-46
2022/07/17 13:26:41;;;;;;;2.00;1.33;;;;;;;;;;5101497;28;25044;-46
2022/07/17 13:29:06;;;;;;;1.75;1.30;;;;;;;;;;5099351;27;25045;-46
2022/07/17 13:31:32;;;;;;;2.72;1.30;;;;;;;;;;5093152;28;24453;-46
2022/07/17 13:33:57;;;;;;;2.63;1.53;;;;;;;;;;5101703;27;24458;-46
2022/07/17 13:36:22;;;;;;;2.00;1.30;;;;;;;;;;5097389;28;24422;-46
2022/07/17 13:38:47;;;;;;;2.50;1.80;;;;;;;;;;5095969;28;25277;-46
2022/07/17 13:41:13;;;;;;;1.50;1.20;;;;;;;;;;5087131;28;24513;-46
2022/07/17 13:43:38;;;;;;;2.27;1.40;;;;;;;;;;5093557;27;24440;-46
2022/07/17 13:46:03;;;;;;;4.37;1.30;;;;;;;;;;5101519;27;24489;-46
2022/07/17 13:48:29;;;;;;;2.50;1.40;;;;;;;;;;5094067;27;24445;-45
2022/07/17 13:50:54;;;;;;;2.38;1.20;;;;;;;;;;5097710;28;24429;-45
2022/07/17 13:53:19;;;;;;;1.90;1.07;;;;;;;;;;5101816;28;24417;-46
2022/07/17 13:55:44;;;;;;;2.25;1.40;;;;;;;;;;5103777;28;24502;-45
2022/07/17 13:58:10;;;;;;;2.17;1.38;;;;;;;;;;5102591;28;24409;-47
2022/07/17 14:00:35;;;;;;;1.95;1.30;;;;;;;;;;5090437;28;24425;-46
2022/07/17 14:03:00;;;;;;;1.60;1.40;;;;;;;;;;5106858;28;24422;-46
2022/07/17 14:05:26;;;;;;;2.90;1.40;;;;;;;;;;5102108;28;24568;-46
2022/07/17 14:07:51;;;;;;;1.83;1.40;;;;;;;;;;5099261;28;24413;-46
2022/07/17 14:10:16;;;;;;;4.20;1.70;;;;;;;;;;5103971;28;25143;-46
2022/07/17 14:12:41;;;;;;;3.20;1.60;;;;;;;;;;5092170;27;24418;-46
2022/07/17 14:15:10;;;;;;;1.20;1.10;;;;;;;;;;5095900;28;24418;-46
2022/07/17 14:17:35;;;;;;;1.40;1.20;;;;;;;;;;5100175;28;24421;-45
2022/07/17 14:20:00;;;;;;;3.30;1.53;;;;;;;;;;5099590;28;24438;-46
2022/07/17 14:22:26;;;;;;;3.03;1.40;;;;;;;;;;5092155;28;24437;-46
2022/07/17 14:24:51;;;;;;;2.10;1.30;;;;;;;;;;5106435;28;24425;-46
2022/07/17 14:27:16;;;;;;;1.98;1.48;;;;;;;;;;5102531;28;24834;-44
2022/07/17 14:29:41;;;;;;;1.50;1.20;;;;;;;;;;5101455;28;24426;-46
2022/07/17 14:32:06;;;;;;;1.50;1.10;;;;;;;;;;5087483;28;24509;-45
2022/07/17 14:34:31;;;;;;;1.95;1.08;;;;;;;;;;5095750;28;24761;-44